createdAt,value
2023-01-10T00:00:32.094Z,30.67
2023-01-10T00:02:59.402Z,28.85
2023-01-10T00:05:26.614Z,25.08
2023-01-10T00:07:53.973Z,28.45
2023-01-10T00:10:21.179Z,22.75
2023-01-10T00:13:06.846Z,25.35
2023-01-10T00:15:34.884Z,27.95
2023-01-10T00:18:02.109Z,28.58
2023-01-10T00:20:29.318Z,19.92
2023-01-10T00:22:56.454Z,19.83
2023-01-10T00:25:23.906Z,19.80
2023-01-10T00:27:57.783Z,18.02
2023-01-10T00:30:25.101Z,23.27
2023-01-10T00:32:52.237Z,26.25
2023-01-10T00:35:20.090Z,20.98
2023-01-10T00:37:47.500Z,20.77
2023-01-10T00:40:14.829Z,23.38
2023-01-10T00:43:00.476Z,19.58
2023-01-10T00:45:27.662Z,19.05
2023-01-10T00:47:54.733Z,18.23
2023-01-10T00:50:21.900Z,17.08
2023-01-10T00:52:49.159Z,15.40
2023-01-10T00:55:16.299Z,18.92
2023-01-10T00:57:43.511Z,12.80
2023-01-10T01:00:12.148Z,11.43
2023-01-10T01:02:39.350Z,14.63
2023-01-10T01:05:06.831Z,16.98
2023-01-10T01:07:33.933Z,14.52
2023-01-10T01:10:19.444Z,12.02
2023-01-10T01:12:46.677Z,12.57
2023-01-10T01:15:13.818Z,11.98
2023-01-10T01:17:40.982Z,8.93
2023-01-10T01:20:09.017Z,8.63
2023-01-10T01:22:36.393Z,10.50
2023-01-10T01:25:04.658Z,7.70
2023-01-10T01:27:31.957Z,7.95
2023-01-10T01:29:59.168Z,6.57
2023-01-10T01:32:26.418Z,8.13
2023-01-10T01:34:53.746Z,7.05
2023-01-10T01:37:20.991Z,7.22
2023-01-10T01:39:48.241Z,6.22
2023-01-10T01:42:26.421Z,5.20
2023-01-10T01:45:08.906Z,10.88
2023-01-10T01:47:56.278Z,12.57
2023-01-10T01:50:26.713Z,8.27
2023-01-10T01:52:55.713Z,8.77
2023-01-10T01:55:25.630Z,9.05
2023-01-10T01:57:53.439Z,7.68
2023-01-10T02:00:20.699Z,13.18
2023-01-10T02:03:02.170Z,12.80
2023-01-10T02:05:31.057Z,8.70
2023-01-10T02:07:59.135Z,13.20
2023-01-10T02:10:40.082Z,9.88
2023-01-10T02:13:08.929Z,11.02
2023-01-10T02:15:36.165Z,9.50
2023-01-10T02:18:04.453Z,13.27
2023-01-10T02:20:35.125Z,8.95
2023-01-10T02:23:02.268Z,7.05
2023-01-10T02:25:48.057Z,10.00
2023-01-10T02:28:15.204Z,13.55
2023-01-10T02:30:51.555Z,8.73
2023-01-10T02:33:18.708Z,9.85
2023-01-10T02:36:05.080Z,8.73
2023-01-10T02:38:35.251Z,13.82
2023-01-10T02:41:07.135Z,15.35
2023-01-10T02:43:36.304Z,12.95
2023-01-10T02:46:08.517Z,10.55
2023-01-10T02:48:35.666Z,15.67
2023-01-10T02:51:04.705Z,14.35
2023-01-10T02:53:35.875Z,12.52
2023-01-10T02:56:21.825Z,16.45
2023-01-10T02:58:48.916Z,15.82
2023-01-10T03:01:25.199Z,20.65
2023-01-10T03:04:11.250Z,27.25
2023-01-10T03:06:46.814Z,15.55
2023-01-10T03:09:13.930Z,15.93
2023-01-10T03:11:43.989Z,23.25
2023-01-10T03:14:19.569Z,15.98
2023-01-10T03:16:52.580Z,19.50
2023-01-10T03:19:24.326Z,19.38
2023-01-10T03:21:55.065Z,26.38
2023-01-10T03:24:26.049Z,22.13
2023-01-10T03:26:58.344Z,19.20
2023-01-10T03:29:29.573Z,19.90
2023-01-10T03:31:57.999Z,19.30
2023-01-10T03:34:25.692Z,20.73
2023-01-10T03:36:52.845Z,17.60
2023-01-10T03:39:24.432Z,21.60
2023-01-10T03:42:00.141Z,16.27
2023-01-10T03:44:45.353Z,22.80
2023-01-10T03:47:32.765Z,16.02
2023-01-10T03:50:09.032Z,30.70
2023-01-10T03:52:36.603Z,19.50
2023-01-10T03:55:05.416Z,20.52
2023-01-10T03:57:32.704Z,17.63
2023-01-10T04:00:00.376Z,17.77
2023-01-10T04:02:28.414Z,19.33
2023-01-10T04:04:55.558Z,12.85
2023-01-10T04:07:22.929Z,14.15
2023-01-10T04:09:50.114Z,14.25
2023-01-10T04:12:17.778Z,22.42
2023-01-10T04:14:47.921Z,14.63
2023-01-10T04:17:15.733Z,24.17
2023-01-10T04:19:43.189Z,20.35
2023-01-10T04:22:11.052Z,22.10
2023-01-10T04:24:38.566Z,21.60
2023-01-10T04:27:05.839Z,21.80
2023-01-10T04:29:33.042Z,25.00
2023-01-10T04:32:01.059Z,20.40
2023-01-10T04:34:28.285Z,18.50
2023-01-10T04:36:55.518Z,17.95
2023-01-10T04:39:22.623Z,19.00
2023-01-10T04:41:49.910Z,17.52
2023-01-10T04:44:17.067Z,18.45
2023-01-10T04:46:44.176Z,17.70
2023-01-10T04:49:11.373Z,19.20
2023-01-10T04:51:38.661Z,16.90
2023-01-10T04:54:05.829Z,19.58
2023-01-10T04:56:32.979Z,28.70
2023-01-10T04:59:00.150Z,16.65
2023-01-10T05:01:27.514Z,19.30
2023-01-10T05:03:55.412Z,13.70
2023-01-10T05:06:24.044Z,19.85
2023-01-10T05:08:51.245Z,15.43
2023-01-10T05:11:18.578Z,18.13
2023-01-10T05:13:47.920Z,19.48
2023-01-10T05:16:15.438Z,14.98
2023-01-10T05:18:42.606Z,23.10
2023-01-10T05:21:13.993Z,18.45
2023-01-10T05:23:41.181Z,19.95
2023-01-10T05:26:08.319Z,18.10
2023-01-10T05:28:35.406Z,16.00
2023-01-10T05:31:02.703Z,14.73
2023-01-10T05:33:58.390Z,18.98
2023-01-10T05:36:25.525Z,20.95
2023-01-10T05:38:52.700Z,17.20
2023-01-10T05:41:20.273Z,17.67
2023-01-10T05:43:48.009Z,14.93
2023-01-10T05:46:15.650Z,17.75
2023-01-10T05:48:42.896Z,18.48
2023-01-10T05:51:10.062Z,14.48
2023-01-10T05:53:37.389Z,18.98
2023-01-10T05:56:04.931Z,16.35
2023-01-10T05:58:32.233Z,12.68
2023-01-10T06:00:59.781Z,18.85
2023-01-10T06:03:27.646Z,14.05
2023-01-10T06:05:55.549Z,13.20
2023-01-10T06:08:23.206Z,20.02
2023-01-10T06:10:52.265Z,19.98
2023-01-10T06:13:19.475Z,15.95
2023-01-10T06:15:46.879Z,13.82
2023-01-10T06:18:14.272Z,19.35
2023-01-10T06:20:41.811Z,17.88
2023-01-10T06:23:08.955Z,11.82
2023-01-10T06:25:40.235Z,18.98
2023-01-10T06:28:08.266Z,17.80
2023-01-10T06:30:35.638Z,14.18
2023-01-10T06:33:03.670Z,21.10
2023-01-10T06:35:30.923Z,16.00
2023-01-10T06:37:58.544Z,18.77
2023-01-10T06:40:26.160Z,18.88
2023-01-10T06:42:53.314Z,17.13
2023-01-10T06:45:20.874Z,16.42
2023-01-10T06:47:48.088Z,19.13
2023-01-10T06:50:15.252Z,17.45
2023-01-10T06:52:42.350Z,23.65
2023-01-10T06:55:09.554Z,15.93
2023-01-10T06:57:38.277Z,15.40
2023-01-10T07:00:10.624Z,18.75
2023-01-10T07:02:38.118Z,28.83
2023-01-10T07:05:05.378Z,20.75
2023-01-10T07:07:32.539Z,21.42
2023-01-10T07:09:59.765Z,30.35
2023-01-10T07:12:27.027Z,26.60
2023-01-10T07:14:54.249Z,26.02
2023-01-10T07:17:21.422Z,22.85
2023-01-10T07:19:48.632Z,29.33
2023-01-10T07:22:15.727Z,24.00
2023-01-10T07:24:42.973Z,27.85
2023-01-10T07:27:10.047Z,24.75
2023-01-10T07:29:37.181Z,27.80
2023-01-10T07:32:04.327Z,29.58
2023-01-10T07:34:31.496Z,33.50
2023-01-10T07:36:58.657Z,40.45
2023-01-10T07:39:25.843Z,32.50
2023-01-10T07:41:53.446Z,28.33
2023-01-10T07:44:20.613Z,41.90
2023-01-10T07:46:47.781Z,36.42
2023-01-10T07:49:14.961Z,26.05
2023-01-10T07:51:42.203Z,31.17
2023-01-10T07:54:09.376Z,30.90
2023-01-10T07:56:36.512Z,34.38
2023-01-10T07:59:03.667Z,36.75
2023-01-10T08:01:30.941Z,31.38
2023-01-10T08:03:58.900Z,41.00
2023-01-10T08:06:26.048Z,37.85
2023-01-10T08:08:53.206Z,34.55
2023-01-10T08:11:20.482Z,33.45
2023-01-10T08:13:47.700Z,34.00
2023-01-10T08:16:15.684Z,37.10
2023-01-10T08:18:43.290Z,33.95
2023-01-10T08:21:10.809Z,29.77
2023-01-10T08:23:38.380Z,44.28
2023-01-10T08:26:05.898Z,31.17
2023-01-10T08:28:33.379Z,37.13
2023-01-10T08:31:05.615Z,37.70
2023-01-10T08:33:32.873Z,32.67
2023-01-10T08:36:00.010Z,28.08
2023-01-10T08:38:27.274Z,21.83
2023-01-10T08:40:57.021Z,24.85
2023-01-10T08:43:24.147Z,34.58
2023-01-10T08:45:51.453Z,28.38
2023-01-10T08:48:18.805Z,27.88
2023-01-10T08:50:45.976Z,27.17
2023-01-10T08:53:13.887Z,34.63
2023-01-10T08:55:41.163Z,29.80
2023-01-10T08:58:08.375Z,27.48
2023-01-10T09:00:35.528Z,33.83
2023-01-10T09:03:02.783Z,27.08
2023-01-10T09:05:30.027Z,30.95
2023-01-10T09:08:01.329Z,28.08
2023-01-10T09:10:29.566Z,24.60
2023-01-10T09:12:59.944Z,27.02
2023-01-10T09:15:28.428Z,28.50
2023-01-10T09:17:56.598Z,28.40
2023-01-10T09:20:24.507Z,33.65
2023-01-10T09:22:51.818Z,37.00
2023-01-10T09:25:19.370Z,24.17
2023-01-10T09:27:46.541Z,31.15
2023-01-10T09:30:14.187Z,27.90
2023-01-10T09:32:41.417Z,28.05
2023-01-10T09:35:08.758Z,27.60
2023-01-10T09:37:37.953Z,28.15
2023-01-10T09:40:06.380Z,34.17
2023-01-10T09:42:33.452Z,26.67
2023-01-10T09:45:17.292Z,29.00
2023-01-10T09:47:56.321Z,27.65
2023-01-10T09:50:45.505Z,31.42
2023-01-10T09:53:14.702Z,31.17
2023-01-10T09:55:42.266Z,36.45
2023-01-10T09:58:13.986Z,28.23
2023-01-10T10:00:46.165Z,31.25
2023-01-10T10:03:36.119Z,26.70
2023-01-10T10:06:12.027Z,32.83
2023-01-10T10:08:44.047Z,28.73
2023-01-10T10:11:26.560Z,27.13
2023-01-10T10:14:02.994Z,26.80
2023-01-10T10:16:33.112Z,26.52
2023-01-10T10:19:04.463Z,26.33
2023-01-10T10:21:47.281Z,25.83
2023-01-10T10:24:25.953Z,29.00
2023-01-10T10:26:59.561Z,26.73
2023-01-10T10:29:32.113Z,27.30
2023-01-10T10:32:20.254Z,28.65
2023-01-10T10:34:57.473Z,25.40
2023-01-10T10:37:43.139Z,28.20
2023-01-10T10:40:21.875Z,29.92
2023-01-10T10:42:52.633Z,35.03
2023-01-10T10:45:44.401Z,37.03
2023-01-10T10:48:26.271Z,33.17
2023-01-10T10:51:06.721Z,31.17
2023-01-10T10:53:34.530Z,29.17
2023-01-10T10:56:03.590Z,22.30
2023-01-10T10:58:32.670Z,30.13
2023-01-10T11:01:00.971Z,30.33
2023-01-10T11:03:43.952Z,27.42
2023-01-10T11:06:11.134Z,29.73
2023-01-10T11:08:44.719Z,29.30
2023-01-10T11:11:31.539Z,28.83
2023-01-10T11:14:03.135Z,24.35
2023-01-10T11:16:33.245Z,26.75
2023-01-10T11:19:16.235Z,24.60
2023-01-10T11:22:06.231Z,36.95
2023-01-10T11:24:36.116Z,23.52
2023-01-10T11:27:16.384Z,23.52
2023-01-10T11:29:56.934Z,27.20
2023-01-10T11:35:38.874Z,20.92
2023-01-10T11:38:18.130Z,24.83
2023-01-10T11:40:55.279Z,24.50
2023-01-10T11:43:33.934Z,33.60
2023-01-10T11:46:16.241Z,23.15
2023-01-10T11:49:08.594Z,28.10
2023-01-10T11:52:06.977Z,24.83
2023-01-10T11:54:34.366Z,26.60
2023-01-10T11:57:14.786Z,31.63
2023-01-10T12:00:16.529Z,28.10
2023-01-10T12:02:44.896Z,22.83
2023-01-10T12:05:19.868Z,22.08
2023-01-10T12:08:06.281Z,31.77
2023-01-10T12:10:35.127Z,26.85
2023-01-10T12:13:15.149Z,22.52
2023-01-10T12:15:42.148Z,23.45
2023-01-10T12:18:12.138Z,34.15
2023-01-10T12:20:50.478Z,17.60
2023-01-10T12:23:20.957Z,24.92
2023-01-10T12:25:50.061Z,27.52
2023-01-10T12:28:21.412Z,21.40
2023-01-10T12:30:52.892Z,25.40
2023-01-10T12:33:46.639Z,24.42
2023-01-10T12:36:54.459Z,31.20
2023-01-10T12:43:35.995Z,27.92
2023-01-10T12:47:00.365Z,22.20
2023-01-10T12:49:24.869Z,32.90
2023-01-10T12:51:54.848Z,15.10
2023-01-10T12:54:25.857Z,17.65
2023-01-10T12:56:54.044Z,17.48
2023-01-10T12:59:37.173Z,15.88
2023-01-10T13:04:36.995Z,18.20
2023-01-10T13:07:04.872Z,16.42
2023-01-10T13:09:32.143Z,15.07
2023-01-10T13:12:11.029Z,14.23
2023-01-10T13:15:19.834Z,16.33
2023-01-10T13:17:51.194Z,19.52
2023-01-10T13:20:24.334Z,15.65
2023-01-10T13:25:34.971Z,13.57
2023-01-10T13:28:06.256Z,14.33
2023-01-10T13:30:40.886Z,12.10
2023-01-10T13:33:32.236Z,14.75
2023-01-10T13:36:21.524Z,17.88
2023-01-10T13:38:52.750Z,20.50
2023-01-10T13:41:38.634Z,16.70
2023-01-10T13:44:13.996Z,18.45
2023-01-10T13:46:46.472Z,14.38
2023-01-10T13:49:13.309Z,22.05
2023-01-10T13:52:00.207Z,21.27
2023-01-10T13:54:28.509Z,19.00
2023-01-10T13:56:55.239Z,19.67
2023-01-10T13:59:46.282Z,17.33
2023-01-10T14:02:29.881Z,17.90
2023-01-10T14:05:18.206Z,13.82
2023-01-10T14:07:50.958Z,18.15
2023-01-10T14:10:25.552Z,15.63
2023-01-10T14:13:09.121Z,16.77
2023-01-10T14:15:43.828Z,13.40
2023-01-10T14:18:21.794Z,15.20
2023-01-10T14:21:03.803Z,20.23
2023-01-10T14:23:42.934Z,18.42
2023-01-10T14:26:26.406Z,17.77
2023-01-10T14:28:53.304Z,15.95
2023-01-10T14:31:25.539Z,15.00
2023-01-10T14:33:53.517Z,18.53
2023-01-10T14:36:52.117Z,17.85
2023-01-10T14:39:20.094Z,14.38
2023-01-10T14:41:52.225Z,15.77
2023-01-10T14:44:31.722Z,13.90
2023-01-10T14:47:04.500Z,18.88
2023-01-10T14:49:36.652Z,13.77
2023-01-10T14:52:24.947Z,11.95
2023-01-10T14:55:02.982Z,15.85
2023-01-10T14:57:29.871Z,12.82
2023-01-10T15:00:05.202Z,11.20
2023-01-10T15:02:32.928Z,12.52
2023-01-10T15:05:09.290Z,13.82
2023-01-10T15:07:37.565Z,12.50
2023-01-10T15:10:22.423Z,13.35
2023-01-10T15:12:51.875Z,12.52
2023-01-10T15:15:21.915Z,13.25
2023-01-10T15:17:49.788Z,17.35
2023-01-10T15:20:19.077Z,7.60
2023-01-10T15:23:00.791Z,14.15
2023-01-10T15:25:38.858Z,15.32
2023-01-10T15:28:19.591Z,13.43
2023-01-10T15:30:46.752Z,9.15
2023-01-10T15:33:17.241Z,14.93
2023-01-10T15:35:44.303Z,13.68
2023-01-10T15:38:16.877Z,12.90
2023-01-10T15:40:44.311Z,14.07
2023-01-10T15:43:11.177Z,10.95
2023-01-10T15:45:39.879Z,10.52
2023-01-10T15:48:36.860Z,19.50
2023-01-10T15:51:49.442Z,8.48
2023-01-10T15:54:28.510Z,9.98
2023-01-10T15:57:16.568Z,9.57
2023-01-10T15:59:50.217Z,7.18
2023-01-10T16:02:32.803Z,7.97
2023-01-10T16:05:12.265Z,11.07
2023-01-10T16:07:45.118Z,11.77
2023-01-10T16:10:26.415Z,9.88
2023-01-10T16:13:12.134Z,8.35
2023-01-10T16:15:44.542Z,8.05
2023-01-10T16:18:13.674Z,11.90
2023-01-10T16:20:45.954Z,9.93
2023-01-10T16:23:25.911Z,13.43
2023-01-10T16:25:59.189Z,18.05
2023-01-10T16:28:29.011Z,17.52
2023-01-10T16:30:55.850Z,7.65
2023-01-10T16:33:27.615Z,10.52
2023-01-10T16:35:57.380Z,8.02
2023-01-10T16:38:25.578Z,10.45
2023-01-10T16:41:00.864Z,12.77
2023-01-10T16:43:29.247Z,10.10
2023-01-10T16:46:00.406Z,11.07
2023-01-10T16:48:32.221Z,11.02
2023-01-10T16:51:26.028Z,5.63
2023-01-10T16:53:53.034Z,6.63
2023-01-10T16:56:22.658Z,10.80
2023-01-10T16:58:50.413Z,8.23
2023-01-10T17:01:41.937Z,9.30
2023-01-10T17:04:11.575Z,7.25
2023-01-10T17:06:40.571Z,14.70
2023-01-10T17:09:11.592Z,6.18
2023-01-10T17:11:42.047Z,11.25
2023-01-10T17:14:14.228Z,11.30
2023-01-10T17:16:41.395Z,7.97
2023-01-10T17:19:08.421Z,18.48
2023-01-10T17:21:35.182Z,8.93
2023-01-10T17:24:01.907Z,13.60
2023-01-10T17:26:28.667Z,8.82
2023-01-10T17:28:55.513Z,9.98
2023-01-10T17:31:22.377Z,9.80
2023-01-10T17:33:49.276Z,14.25
2023-01-10T17:36:18.903Z,11.50
2023-01-10T17:38:46.084Z,10.00
2023-01-10T17:41:12.863Z,10.05
2023-01-10T17:43:39.789Z,8.73
2023-01-10T17:46:06.697Z,6.32
2023-01-10T17:48:34.850Z,6.45
2023-01-10T17:51:03.381Z,8.75
2023-01-10T17:53:30.645Z,9.90
2023-01-10T17:56:00.023Z,9.20
2023-01-10T17:58:28.083Z,5.78
2023-01-10T18:00:55.367Z,15.90
2023-01-10T18:03:33.029Z,12.38
2023-01-10T18:05:59.849Z,7.85
2023-01-10T18:08:27.088Z,7.63
2023-01-10T18:11:00.201Z,9.55
2023-01-10T18:15:58.446Z,10.70
2023-01-10T18:18:27.691Z,7.18
2023-01-10T18:20:57.682Z,11.88
2023-01-10T18:23:26.712Z,11.40
2023-01-10T18:26:05.420Z,13.65
2023-01-10T18:28:42.771Z,13.50
2023-01-10T18:31:13.101Z,14.48
2023-01-10T18:33:40.091Z,10.73
2023-01-10T18:36:14.175Z,13.73
2023-01-10T18:38:41.322Z,6.25
2023-01-10T18:41:08.140Z,12.13
2023-01-10T18:43:35.272Z,10.85
2023-01-10T18:46:08.152Z,15.95
2023-01-10T18:48:35.107Z,14.85
2023-01-10T18:51:03.598Z,13.88
2023-01-10T18:53:30.801Z,8.88
2023-01-10T18:55:59.905Z,6.05
2023-01-10T18:58:29.914Z,9.98
2023-01-10T19:00:56.880Z,12.23
2023-01-10T19:03:23.942Z,10.73
2023-01-10T19:05:50.927Z,9.05
2023-01-10T19:08:17.751Z,10.10
2023-01-10T19:11:11.274Z,11.00
2023-01-10T19:13:32.524Z,16.55
2023-01-10T19:16:29.169Z,6.75
2023-01-10T19:18:59.078Z,9.15
2023-01-10T19:21:27.525Z,9.00
2023-01-10T19:23:55.865Z,12.60
2023-01-10T19:26:24.211Z,13.93
2023-01-10T19:28:51.257Z,10.18
2023-01-10T19:31:27.014Z,14.93
2023-01-10T19:33:54.786Z,8.85
2023-01-10T19:36:22.958Z,12.55
2023-01-10T19:38:55.233Z,9.02
2023-01-10T19:41:22.165Z,7.47
2023-01-10T19:43:53.673Z,7.00
2023-01-10T19:46:20.464Z,13.70
2023-01-10T19:48:47.251Z,6.75
2023-01-10T19:51:14.264Z,13.10
2023-01-10T19:53:44.428Z,9.85
2023-01-10T19:56:12.360Z,13.88
2023-01-10T19:58:39.464Z,7.63
2023-01-10T20:01:11.871Z,11.35
2023-01-10T20:03:42.191Z,14.65
2023-01-10T20:06:11.004Z,12.60
2023-01-10T20:08:38.205Z,17.42
2023-01-10T20:11:06.168Z,12.75
2023-01-10T20:13:37.832Z,8.77
2023-01-10T20:16:05.979Z,13.98
2023-01-10T20:18:33.261Z,12.82
2023-01-10T20:21:03.822Z,12.95
2023-01-10T20:23:35.223Z,13.23
2023-01-10T20:26:22.751Z,11.50
2023-01-10T20:28:50.752Z,11.88
2023-01-10T20:31:22.000Z,10.73
2023-01-10T20:33:49.270Z,14.07
2023-01-10T20:36:18.155Z,13.07
2023-01-10T20:38:45.712Z,15.15
2023-01-10T20:41:15.008Z,10.75
2023-01-10T20:43:42.356Z,8.57
2023-01-10T20:46:13.970Z,12.88
2023-01-10T20:48:41.742Z,16.67
2023-01-10T20:51:11.584Z,8.40
2023-01-10T20:53:39.985Z,5.93
2023-01-10T20:56:08.227Z,10.38
2023-01-10T20:58:35.789Z,12.32
2023-01-10T21:01:03.449Z,12.13
2023-01-10T21:03:30.675Z,8.73
2023-01-10T21:05:59.392Z,9.52
2023-01-10T21:08:29.516Z,11.73
2023-01-10T21:10:56.799Z,10.73
2023-01-10T21:13:25.236Z,9.38
2023-01-10T21:15:54.428Z,13.23
2023-01-10T21:18:25.035Z,6.88
2023-01-10T21:20:54.715Z,13.50
2023-01-10T21:23:25.118Z,8.43
2023-01-10T21:25:52.666Z,8.07
2023-01-10T21:28:20.108Z,13.20
2023-01-10T21:30:47.843Z,4.47
2023-01-10T21:33:15.038Z,9.82
2023-01-10T21:35:42.218Z,3.58
2023-01-10T21:38:09.653Z,4.45
2023-01-10T21:40:37.022Z,6.55
2023-01-10T21:43:04.368Z,5.40
2023-01-10T21:45:32.433Z,7.78
2023-01-10T21:47:59.745Z,6.53
2023-01-10T21:50:29.214Z,4.15
2023-01-10T21:52:56.405Z,5.40
2023-01-10T21:55:23.560Z,6.57
2023-01-10T21:57:50.775Z,5.68
2023-01-10T22:00:18.163Z,8.30
2023-01-10T22:02:45.276Z,5.43
2023-01-10T22:05:12.492Z,6.32
2023-01-10T22:07:39.704Z,5.05
2023-01-10T22:10:08.207Z,4.93
2023-01-10T22:12:36.685Z,4.03
2023-01-10T22:15:04.087Z,3.95
2023-01-10T22:17:31.302Z,3.67
2023-01-10T22:19:58.510Z,3.38
2023-01-10T22:22:25.624Z,3.08
2023-01-10T22:24:52.803Z,3.08
2023-01-10T22:27:20.022Z,3.60
2023-01-10T22:29:47.184Z,3.08
2023-01-10T22:32:14.352Z,3.88
2023-01-10T22:34:41.623Z,2.25
2023-01-10T22:37:08.857Z,3.03
2023-01-10T22:39:36.035Z,2.22
2023-01-10T22:42:03.238Z,4.82
2023-01-10T22:44:30.512Z,2.85
2023-01-10T22:46:57.609Z,2.50
2023-01-10T22:49:24.765Z,2.20
2023-01-10T22:51:51.952Z,2.40
2023-01-10T22:54:19.158Z,5.57
2023-01-10T22:56:47.148Z,2.72
2023-01-10T22:59:14.621Z,4.10
2023-01-10T23:01:42.038Z,2.25
2023-01-10T23:04:09.340Z,4.53
2023-01-10T23:06:36.577Z,3.08
2023-01-10T23:09:03.795Z,2.17
2023-01-10T23:11:30.961Z,4.63
2023-01-10T23:13:58.117Z,1.83
2023-01-10T23:16:32.765Z,2.40
2023-01-10T23:19:00.378Z,2.10
2023-01-10T23:21:30.855Z,3.67
2023-01-10T23:23:58.439Z,3.50
2023-01-10T23:26:25.704Z,1.58
2023-01-10T23:28:53.146Z,4.45
2023-01-10T23:31:23.034Z,3.00
2023-01-10T23:33:50.777Z,1.67
2023-01-10T23:36:18.400Z,2.97
2023-01-10T23:38:45.790Z,3.10
2023-01-10T23:41:12.997Z,1.65
2023-01-10T23:43:40.324Z,3.17
2023-01-10T23:46:07.921Z,3.15
2023-01-10T23:48:35.571Z,3.60
2023-01-10T23:51:02.855Z,1.75
2023-01-10T23:53:29.942Z,2.95
2023-01-10T23:55:58.318Z,3.83
2023-01-10T23:58:25.444Z,5.88
